createdAt,value
2019-03-27T00:00:17.602Z,1023.38
2019-03-27T00:01:17.591Z,1023.41
2019-03-27T00:02:17.581Z,1023.35
2019-03-27T00:03:17.569Z,1023.40
2019-03-27T00:04:17.559Z,1023.42
2019-03-27T00:05:17.637Z,1023.44
2019-03-27T00:06:17.546Z,1023.41
2019-03-27T00:07:17.529Z,1023.39
2019-03-27T00:08:17.516Z,1023.40
2019-03-27T00:09:17.506Z,1023.41
2019-03-27T00:10:17.496Z,1023.41
2019-03-27T00:11:17.485Z,1023.47
2019-03-27T00:12:17.474Z,1023.46
2019-03-27T00:13:17.463Z,1023.50
2019-03-27T00:14:17.454Z,1023.47
2019-03-27T00:15:17.446Z,1023.52
2019-03-27T00:16:17.430Z,1023.50
2019-03-27T00:17:17.423Z,1023.54
2019-03-27T00:18:17.412Z,1023.57
2019-03-27T00:19:17.399Z,1023.57
2019-03-27T00:20:17.388Z,1023.58
2019-03-27T00:21:17.378Z,1023.56
2019-03-27T00:22:17.366Z,1023.59
2019-03-27T00:23:17.356Z,1023.63
2019-03-27T00:24:17.345Z,1023.58
2019-03-27T00:25:17.336Z,1023.59
2019-03-27T00:26:17.324Z,1023.57
2019-03-27T00:27:17.313Z,1023.53
2019-03-27T00:28:17.303Z,1023.54
2019-03-27T00:29:17.293Z,1023.49
2019-03-27T00:30:17.282Z,1023.50
2019-03-27T00:31:17.272Z,1023.52
2019-03-27T00:32:17.261Z,1023.48
2019-03-27T00:33:17.249Z,1023.51
2019-03-27T00:34:17.241Z,1023.47
2019-03-27T00:35:17.227Z,1023.41
2019-03-27T00:36:17.220Z,1023.40
2019-03-27T00:37:17.205Z,1023.41
2019-03-27T00:38:17.196Z,1023.48
2019-03-27T00:39:17.187Z,1023.49
2019-03-27T00:40:17.246Z,1023.56
2019-03-27T00:41:17.165Z,1023.55
2019-03-27T00:42:17.152Z,1023.51
2019-03-27T00:43:17.142Z,1023.53
2019-03-27T00:44:17.132Z,1023.58
2019-03-27T00:45:26.448Z,1023.55
2019-03-27T00:46:18.109Z,1023.55
2019-03-27T00:47:17.101Z,1023.51
2019-03-27T00:48:17.091Z,1023.48
2019-03-27T00:49:17.079Z,1023.47
2019-03-27T00:50:17.068Z,1023.50
2019-03-27T00:51:17.058Z,1023.49
2019-03-27T00:52:17.053Z,1023.45
2019-03-27T00:53:17.036Z,1023.43
2019-03-27T00:54:17.026Z,1023.44
2019-03-27T00:55:17.017Z,1023.41
2019-03-27T00:56:17.004Z,1023.44
2019-03-27T00:57:16.993Z,1023.39
2019-03-27T00:58:16.981Z,1023.37
2019-03-27T00:59:19.323Z,1023.35
2019-03-27T01:00:16.961Z,1023.33
2019-03-27T01:01:16.954Z,1023.34
2019-03-27T01:02:16.940Z,1023.38
2019-03-27T01:03:16.930Z,1023.35
2019-03-27T01:04:16.918Z,1023.38
2019-03-27T01:05:16.911Z,1023.32
2019-03-27T01:06:16.898Z,1023.40
2019-03-27T01:07:16.886Z,1023.40
2019-03-27T01:08:16.877Z,1023.42
2019-03-27T01:09:16.866Z,1023.44
2019-03-27T01:10:16.854Z,1023.45
2019-03-27T01:11:16.844Z,1023.45
2019-03-27T01:12:16.897Z,1023.41
2019-03-27T01:13:16.822Z,1023.40
2019-03-27T01:14:16.812Z,1023.38
2019-03-27T01:15:16.801Z,1023.41
2019-03-27T01:16:16.792Z,1023.41
2019-03-27T01:17:16.784Z,1023.37
2019-03-27T01:18:16.770Z,1023.38
2019-03-27T01:19:16.758Z,1023.35
2019-03-27T01:20:16.748Z,1023.35
2019-03-27T01:21:16.744Z,1023.34
2019-03-27T01:22:16.726Z,1023.28
2019-03-27T01:23:16.716Z,1023.32
2019-03-27T01:24:16.704Z,1023.29
2019-03-27T01:25:16.695Z,1023.28
2019-03-27T01:26:16.682Z,1023.30
2019-03-27T01:27:16.680Z,1023.27
2019-03-27T01:28:16.661Z,1023.30
2019-03-27T01:29:16.652Z,1023.33
2019-03-27T01:30:16.640Z,1023.33
2019-03-27T01:31:16.629Z,1023.32
2019-03-27T01:32:16.619Z,1023.32
2019-03-27T01:33:16.616Z,1023.37
2019-03-27T01:34:16.597Z,1023.39
2019-03-27T01:35:16.589Z,1023.37
2019-03-27T01:36:16.579Z,1023.41
2019-03-27T01:37:16.565Z,1023.41
2019-03-27T01:38:16.556Z,1023.45
2019-03-27T01:39:16.544Z,1023.40
2019-03-27T01:40:16.534Z,1023.37
2019-03-27T01:41:16.526Z,1023.47
2019-03-27T01:42:16.515Z,1023.44
2019-03-27T01:43:16.501Z,1023.39
2019-03-27T01:44:16.493Z,1023.39
2019-03-27T01:45:16.478Z,1023.42
2019-03-27T01:46:16.470Z,1023.40
2019-03-27T01:47:16.460Z,1023.39
2019-03-27T01:48:16.447Z,1023.41
2019-03-27T01:49:16.436Z,1023.45
2019-03-27T01:50:16.428Z,1023.46
2019-03-27T01:51:16.415Z,1023.47
2019-03-27T01:52:16.406Z,1023.49
2019-03-27T01:53:16.394Z,1023.45
2019-03-27T01:54:16.383Z,1023.45
2019-03-27T01:55:16.371Z,1023.46
2019-03-27T01:56:16.361Z,1023.47
2019-03-27T01:57:16.350Z,1023.48
2019-03-27T01:58:16.352Z,1023.45
2019-03-27T01:59:16.331Z,1023.44
2019-03-27T02:00:16.318Z,1023.40
2019-03-27T02:01:16.308Z,1023.41
2019-03-27T02:02:16.296Z,1023.38
2019-03-27T02:03:16.287Z,1023.40
2019-03-27T02:04:16.279Z,1023.46
2019-03-27T02:05:16.265Z,1023.50
2019-03-27T02:06:16.254Z,1023.54
2019-03-27T02:07:16.245Z,1023.51
2019-03-27T02:08:16.236Z,1023.54
2019-03-27T02:09:16.222Z,1023.55
2019-03-27T02:10:16.212Z,1023.61
2019-03-27T02:11:16.202Z,1023.58
2019-03-27T02:12:16.192Z,1023.57
2019-03-27T02:13:16.179Z,1023.56
2019-03-27T02:14:16.174Z,1023.57
2019-03-27T02:15:16.159Z,1023.57
2019-03-27T02:16:16.149Z,1023.53
2019-03-27T02:17:16.137Z,1023.57
2019-03-27T02:18:16.127Z,1023.59
2019-03-27T02:19:16.120Z,1023.57
2019-03-27T02:20:16.113Z,1023.61
2019-03-27T02:21:16.095Z,1023.63
2019-03-27T02:22:16.084Z,1023.60
2019-03-27T02:23:16.073Z,1023.58
2019-03-27T02:24:16.064Z,1023.65
2019-03-27T02:25:16.051Z,1023.57
2019-03-27T02:26:16.041Z,1023.56
2019-03-27T02:27:16.029Z,1023.60
2019-03-27T02:28:16.026Z,1023.56
2019-03-27T02:29:16.008Z,1023.54
2019-03-27T02:30:16.006Z,1023.53
2019-03-27T02:31:15.991Z,1023.52
2019-03-27T02:32:20.245Z,1023.53
2019-03-27T02:33:15.966Z,1023.52
2019-03-27T02:34:15.961Z,1023.53
2019-03-27T02:35:15.950Z,1023.54
2019-03-27T02:36:15.938Z,1023.52
2019-03-27T02:37:15.932Z,1023.51
2019-03-27T02:38:15.914Z,1023.49
2019-03-27T02:39:15.902Z,1023.48
2019-03-27T02:40:15.892Z,1023.48
2019-03-27T02:41:15.881Z,1023.49
2019-03-27T02:42:15.869Z,1023.52
2019-03-27T02:43:15.859Z,1023.49
2019-03-27T02:44:15.849Z,1023.47
2019-03-27T02:45:15.839Z,1023.52
2019-03-27T02:46:24.643Z,1023.51
2019-03-27T02:47:16.821Z,1023.47
2019-03-27T02:48:15.808Z,1023.48
2019-03-27T02:49:15.794Z,1023.49
2019-03-27T02:50:15.788Z,1023.44
2019-03-27T02:51:15.774Z,1023.57
2019-03-27T02:52:15.763Z,1023.50
2019-03-27T02:53:15.752Z,1023.53
2019-03-27T02:54:15.752Z,1023.57
2019-03-27T02:55:15.740Z,1023.49
2019-03-27T02:56:15.720Z,1023.53
2019-03-27T02:57:15.709Z,1023.51
2019-03-27T02:58:15.697Z,1023.50
2019-03-27T02:59:15.687Z,1023.56
2019-03-27T03:00:15.683Z,1023.54
2019-03-27T03:01:15.672Z,1023.48
2019-03-27T03:02:15.655Z,1023.52
2019-03-27T03:03:15.646Z,1023.52
2019-03-27T03:04:15.634Z,1023.54
2019-03-27T03:05:15.630Z,1023.53
2019-03-27T03:06:15.620Z,1023.47
2019-03-27T03:07:15.603Z,1023.50
2019-03-27T03:08:15.591Z,1023.52
2019-03-27T03:09:15.589Z,1023.55
2019-03-27T03:10:15.570Z,1023.56
2019-03-27T03:11:15.561Z,1023.59
2019-03-27T03:12:15.548Z,1023.61
2019-03-27T03:13:15.536Z,1023.55
2019-03-27T03:14:15.527Z,1023.63
2019-03-27T03:15:15.517Z,1023.62
2019-03-27T03:16:15.505Z,1023.66
2019-03-27T03:17:15.498Z,1023.62
2019-03-27T03:18:15.493Z,1023.67
2019-03-27T03:19:15.475Z,1023.63
2019-03-27T03:20:15.462Z,1023.62
2019-03-27T03:21:15.455Z,1023.57
2019-03-27T03:22:15.441Z,1023.59
2019-03-27T03:23:15.437Z,1023.63
2019-03-27T03:24:15.421Z,1023.66
2019-03-27T03:25:15.411Z,1023.64
2019-03-27T03:26:15.398Z,1023.62
2019-03-27T03:27:15.399Z,1023.67
2019-03-27T03:28:15.377Z,1023.73
2019-03-27T03:29:15.366Z,1023.66
2019-03-27T03:30:15.357Z,1023.73
2019-03-27T03:31:15.347Z,1023.73
2019-03-27T03:32:15.333Z,1023.71
2019-03-27T03:33:15.323Z,1023.72
2019-03-27T03:34:15.322Z,1023.74
2019-03-27T03:35:15.302Z,1023.70
2019-03-27T03:36:15.295Z,1023.68
2019-03-27T03:37:15.285Z,1023.68
2019-03-27T03:38:15.270Z,1023.69
2019-03-27T03:39:15.260Z,1023.70
2019-03-27T03:40:15.249Z,1023.68
2019-03-27T03:41:15.237Z,1023.66
2019-03-27T03:42:15.232Z,1023.68
2019-03-27T03:43:15.217Z,1023.67
2019-03-27T03:44:15.205Z,1023.67
2019-03-27T03:45:15.195Z,1023.65
2019-03-27T03:46:15.184Z,1023.70
2019-03-27T03:47:15.174Z,1023.77
2019-03-27T03:48:15.162Z,1023.73
2019-03-27T03:49:15.164Z,1023.78
2019-03-27T03:50:15.142Z,1023.78
2019-03-27T03:51:15.133Z,1023.80
2019-03-27T03:52:15.118Z,1023.77
2019-03-27T03:53:15.120Z,1023.79
2019-03-27T03:54:15.101Z,1023.81
2019-03-27T03:55:15.093Z,1023.80
2019-03-27T03:56:15.084Z,1023.79
2019-03-27T03:57:15.067Z,1023.78
2019-03-27T03:58:15.062Z,1023.82
2019-03-27T03:59:15.045Z,1023.83
2019-03-27T04:00:15.034Z,1023.85
2019-03-27T04:01:15.025Z,1023.86
2019-03-27T04:02:15.014Z,1023.80
2019-03-27T04:03:15.003Z,1023.81
2019-03-27T04:04:14.991Z,1023.88
2019-03-27T04:05:14.985Z,1023.84
2019-03-27T04:06:14.988Z,1023.84
2019-03-27T04:07:14.964Z,1023.83
2019-03-27T04:08:14.960Z,1023.83
2019-03-27T04:09:14.937Z,1023.82
2019-03-27T04:10:14.926Z,1023.79
2019-03-27T04:11:14.922Z,1023.83
2019-03-27T04:12:14.904Z,1023.86
2019-03-27T04:13:14.895Z,1023.88
2019-03-27T04:14:14.890Z,1023.87
2019-03-27T04:15:14.873Z,1023.87
2019-03-27T04:16:14.862Z,1023.91
2019-03-27T04:17:17.443Z,1023.90
2019-03-27T04:18:14.847Z,1023.87
2019-03-27T04:19:14.829Z,1023.89
2019-03-27T04:20:14.819Z,1023.89
2019-03-27T04:21:14.807Z,1023.93
2019-03-27T04:22:14.801Z,1023.94
2019-03-27T04:23:14.794Z,1023.95
2019-03-27T04:24:14.776Z,1023.93
2019-03-27T04:25:14.765Z,1023.92
2019-03-27T04:26:14.754Z,1023.99
2019-03-27T04:27:14.767Z,1023.99
2019-03-27T04:28:14.734Z,1023.98
2019-03-27T04:29:14.730Z,1023.99
2019-03-27T04:30:14.711Z,1024.03
2019-03-27T04:31:14.701Z,1024.05
2019-03-27T04:32:14.693Z,1024.05
2019-03-27T04:33:14.683Z,1024.02
2019-03-27T04:34:14.667Z,1024.05
2019-03-27T04:35:14.657Z,1024.04
2019-03-27T04:36:14.647Z,1024.10
2019-03-27T04:37:14.638Z,1024.13
2019-03-27T04:38:14.626Z,1024.08
2019-03-27T04:39:14.619Z,1024.12
2019-03-27T04:40:14.603Z,1024.10
2019-03-27T04:41:14.593Z,1024.09
2019-03-27T04:42:14.583Z,1024.10
2019-03-27T04:43:14.573Z,1024.05
2019-03-27T04:44:14.562Z,1024.10
2019-03-27T04:45:14.550Z,1024.06
2019-03-27T04:46:14.538Z,1024.10
2019-03-27T04:47:14.528Z,1024.11
2019-03-27T04:48:14.525Z,1024.09
2019-03-27T04:49:14.506Z,1024.09
2019-03-27T04:50:14.497Z,1024.15
2019-03-27T04:51:14.485Z,1024.14
2019-03-27T04:52:14.476Z,1024.06
2019-03-27T04:53:14.466Z,1024.08
2019-03-27T04:54:14.464Z,1024.09
2019-03-27T04:55:14.442Z,1024.04
2019-03-27T04:56:14.431Z,1024.07
2019-03-27T04:57:14.422Z,1024.07
2019-03-27T04:58:14.415Z,1024.07
2019-03-27T04:59:14.399Z,1024.11
2019-03-27T05:00:14.388Z,1024.09
2019-03-27T05:01:14.377Z,1024.15
2019-03-27T05:02:14.366Z,1024.12
2019-03-27T05:03:14.358Z,1024.11
2019-03-27T05:04:14.344Z,1024.12
2019-03-27T05:05:14.337Z,1024.19
2019-03-27T05:06:14.329Z,1024.18
2019-03-27T05:07:14.312Z,1024.22
2019-03-27T05:08:14.306Z,1024.20
2019-03-27T05:09:14.296Z,1024.20
2019-03-27T05:10:14.280Z,1024.19
2019-03-27T05:11:14.269Z,1024.22
2019-03-27T05:12:14.258Z,1024.21
2019-03-27T05:13:14.247Z,1024.21
2019-03-27T05:14:14.238Z,1024.23
2019-03-27T05:15:14.226Z,1024.22
2019-03-27T05:16:14.214Z,1024.23
2019-03-27T05:17:14.209Z,1024.23
2019-03-27T05:18:14.194Z,1024.23
2019-03-27T05:19:14.183Z,1024.28
2019-03-27T05:20:14.171Z,1024.27
2019-03-27T05:21:14.161Z,1024.30
2019-03-27T05:22:14.151Z,1024.36
2019-03-27T05:23:14.139Z,1024.34
2019-03-27T05:24:14.132Z,1024.31
2019-03-27T05:25:14.117Z,1024.35
2019-03-27T05:26:14.106Z,1024.35
2019-03-27T05:27:14.098Z,1024.34
2019-03-27T05:28:14.086Z,1024.35
2019-03-27T05:29:14.074Z,1024.34
2019-03-27T05:30:14.063Z,1024.34
2019-03-27T05:31:14.054Z,1024.37
2019-03-27T05:32:14.043Z,1024.37
2019-03-27T05:33:14.036Z,1024.35
2019-03-27T05:34:14.025Z,1024.35
2019-03-27T05:35:14.013Z,1024.35
2019-03-27T05:36:13.998Z,1024.35
2019-03-27T05:37:13.989Z,1024.42
2019-03-27T05:38:13.984Z,1024.35
2019-03-27T05:39:14.760Z,1024.32
2019-03-27T05:40:13.957Z,1024.35
2019-03-27T05:41:13.944Z,1024.37
2019-03-27T05:42:13.935Z,1024.36
2019-03-27T05:43:13.924Z,1024.38
2019-03-27T05:44:13.911Z,1024.42
2019-03-27T05:45:13.905Z,1024.40
2019-03-27T05:46:13.889Z,1024.43
2019-03-27T05:47:13.881Z,1024.44
2019-03-27T05:48:13.869Z,1024.46
2019-03-27T05:49:14.043Z,1024.44
2019-03-27T05:50:13.849Z,1024.47
2019-03-27T05:51:15.256Z,1024.45
2019-03-27T05:52:13.936Z,1024.42
2019-03-27T05:53:13.815Z,1024.45
2019-03-27T05:54:13.817Z,1024.49
2019-03-27T05:55:14.139Z,1024.47
2019-03-27T05:56:13.788Z,1024.44
2019-03-27T05:57:13.775Z,1024.48
2019-03-27T05:58:13.759Z,1024.50
2019-03-27T05:59:13.759Z,1024.54
2019-03-27T06:00:13.739Z,1024.54
2019-03-27T06:01:13.732Z,1024.57
2019-03-27T06:02:13.721Z,1024.51
2019-03-27T06:03:13.713Z,1024.54
2019-03-27T06:04:13.834Z,1024.60
2019-03-27T06:05:13.684Z,1024.56
2019-03-27T06:06:13.674Z,1024.62
2019-03-27T06:07:13.665Z,1024.64
2019-03-27T06:08:13.659Z,1024.63
2019-03-27T06:09:13.646Z,1024.65
2019-03-27T06:10:16.250Z,1024.66
2019-03-27T06:11:13.623Z,1024.65
2019-03-27T06:12:13.610Z,1024.68
2019-03-27T06:13:13.599Z,1024.71
2019-03-27T06:14:13.603Z,1024.74
2019-03-27T06:15:13.575Z,1024.75
2019-03-27T06:16:13.565Z,1024.79
2019-03-27T06:17:13.561Z,1024.80
2019-03-27T06:18:13.719Z,1024.77
2019-03-27T06:19:13.532Z,1024.77
2019-03-27T06:20:13.528Z,1024.80
2019-03-27T06:21:13.509Z,1024.81
2019-03-27T06:22:15.061Z,1024.87
2019-03-27T06:23:13.488Z,1024.79
2019-03-27T06:24:13.486Z,1024.81
2019-03-27T06:25:13.470Z,1024.85
2019-03-27T06:26:13.479Z,1024.87
2019-03-27T06:27:13.449Z,1024.87
2019-03-27T06:28:13.436Z,1024.86
2019-03-27T06:29:15.849Z,1024.87
2019-03-27T06:30:13.420Z,1024.85
2019-03-27T06:31:13.403Z,1024.86
2019-03-27T06:32:13.399Z,1024.90
2019-03-27T06:33:13.380Z,1024.95
2019-03-27T06:34:13.370Z,1024.92
2019-03-27T06:35:13.374Z,1024.92
2019-03-27T06:36:13.376Z,1024.93
2019-03-27T06:37:13.345Z,1024.93
2019-03-27T06:38:13.328Z,1024.87
2019-03-27T06:39:13.323Z,1024.92
2019-03-27T06:40:13.305Z,1024.88
2019-03-27T06:41:13.295Z,1024.89
2019-03-27T06:42:13.295Z,1024.92
2019-03-27T06:43:13.290Z,1024.91
2019-03-27T06:44:13.270Z,1024.88
2019-03-27T06:45:13.276Z,1024.88
2019-03-27T06:46:13.239Z,1024.88
2019-03-27T06:47:13.229Z,1024.88
2019-03-27T06:48:25.523Z,1024.88
2019-03-27T06:49:14.205Z,1024.84
2019-03-27T06:50:13.236Z,1024.91
2019-03-27T06:51:13.186Z,1024.93
2019-03-27T06:52:13.174Z,1024.85
2019-03-27T06:53:13.167Z,1024.83
2019-03-27T06:54:13.178Z,1024.88
2019-03-27T06:55:13.141Z,1024.88
2019-03-27T06:56:13.130Z,1024.86
2019-03-27T06:57:13.128Z,1024.87
2019-03-27T06:58:13.112Z,1024.84
2019-03-27T06:59:13.099Z,1024.87
2019-03-27T07:00:13.091Z,1024.84
2019-03-27T07:01:13.079Z,1024.88
2019-03-27T07:02:13.065Z,1024.90
2019-03-27T07:03:13.055Z,1024.87
2019-03-27T07:04:13.044Z,1024.83
2019-03-27T07:05:13.034Z,1024.83
2019-03-27T07:06:13.025Z,1024.86
2019-03-27T07:07:13.012Z,1024.90
2019-03-27T07:08:13.005Z,1024.91
2019-03-27T07:09:12.998Z,1024.95
2019-03-27T07:10:13.034Z,1024.92
2019-03-27T07:11:12.977Z,1024.91
2019-03-27T07:12:21.171Z,1024.91
2019-03-27T07:13:13.995Z,1024.91
2019-03-27T07:14:12.936Z,1024.92
2019-03-27T07:15:12.925Z,1024.90
2019-03-27T07:16:12.914Z,1024.91
2019-03-27T07:17:12.907Z,1024.92
2019-03-27T07:18:12.894Z,1024.99
2019-03-27T07:19:12.882Z,1024.91
2019-03-27T07:20:12.871Z,1025.01
2019-03-27T07:21:12.860Z,1025.00
2019-03-27T07:22:12.854Z,1025.00
2019-03-27T07:23:12.840Z,1024.99
2019-03-27T07:24:12.828Z,1025.00
2019-03-27T07:25:12.820Z,1024.98
2019-03-27T07:26:12.807Z,1024.97
2019-03-27T07:27:12.796Z,1024.97
2019-03-27T07:28:12.785Z,1024.94
2019-03-27T07:29:12.775Z,1025.04
2019-03-27T07:30:12.764Z,1025.02
2019-03-27T07:31:12.752Z,1024.98
2019-03-27T07:32:12.743Z,1025.02
2019-03-27T07:33:12.735Z,1025.03
2019-03-27T07:34:12.719Z,1025.05
2019-03-27T07:35:12.710Z,1025.07
2019-03-27T07:36:12.700Z,1025.07
2019-03-27T07:37:12.689Z,1025.12
2019-03-27T07:38:12.676Z,1025.09
2019-03-27T07:39:12.667Z,1025.12
2019-03-27T07:40:12.658Z,1025.15
2019-03-27T07:41:12.647Z,1025.17
2019-03-27T07:42:12.632Z,1025.19
2019-03-27T07:43:12.623Z,1025.15
2019-03-27T07:44:12.612Z,1025.16
2019-03-27T07:45:12.601Z,1025.17
2019-03-27T07:46:12.591Z,1025.18
2019-03-27T07:47:12.585Z,1025.16
2019-03-27T07:48:12.568Z,1025.19
2019-03-27T07:49:12.556Z,1025.19
2019-03-27T07:50:12.549Z,1025.20
2019-03-27T07:51:12.536Z,1025.18
2019-03-27T07:52:12.525Z,1025.17
2019-03-27T07:53:12.515Z,1025.22
2019-03-27T07:54:12.601Z,1025.23
2019-03-27T07:55:19.361Z,1025.24
2019-03-27T07:56:13.484Z,1025.26
2019-03-27T07:57:12.470Z,1025.25
2019-03-27T07:58:12.463Z,1025.25
2019-03-27T07:59:12.453Z,1025.24
2019-03-27T08:00:12.438Z,1025.25
2019-03-27T08:01:12.426Z,1025.24
2019-03-27T08:02:12.415Z,1025.21
2019-03-27T08:03:12.407Z,1025.20
2019-03-27T08:04:14.391Z,1025.23
2019-03-27T08:05:12.384Z,1025.21
2019-03-27T08:06:12.377Z,1025.22
2019-03-27T08:07:25.895Z,1025.25
2019-03-27T08:08:13.357Z,1025.25
2019-03-27T08:09:12.341Z,1025.22
2019-03-27T08:10:12.333Z,1025.24
2019-03-27T08:11:12.419Z,1025.28
2019-03-27T08:12:12.310Z,1025.32
2019-03-27T08:13:12.301Z,1025.25
2019-03-27T08:14:12.288Z,1025.28
2019-03-27T08:15:12.277Z,1025.29
2019-03-27T08:16:12.270Z,1025.27
2019-03-27T08:17:12.258Z,1025.31
2019-03-27T08:18:12.244Z,1025.30
2019-03-27T08:19:12.234Z,1025.31
2019-03-27T08:20:12.221Z,1025.25
2019-03-27T08:21:12.212Z,1025.23
2019-03-27T08:22:12.210Z,1025.27
2019-03-27T08:23:12.189Z,1025.24
2019-03-27T08:24:12.178Z,1025.31
2019-03-27T08:25:12.169Z,1025.20
2019-03-27T08:26:12.158Z,1025.23
2019-03-27T08:27:14.558Z,1025.23
2019-03-27T08:28:12.136Z,1025.24
2019-03-27T08:29:12.124Z,1025.24
2019-03-27T08:30:12.113Z,1025.23
2019-03-27T08:31:12.102Z,1025.24
2019-03-27T08:32:12.092Z,1025.24
2019-03-27T08:33:12.081Z,1025.25
2019-03-27T08:34:12.070Z,1025.29
2019-03-27T08:35:12.062Z,1025.27
2019-03-27T08:36:12.048Z,1025.40
2019-03-27T08:37:12.037Z,1025.31
2019-03-27T08:38:14.978Z,1025.30
2019-03-27T08:39:12.018Z,1025.39
2019-03-27T08:40:12.005Z,1025.42
2019-03-27T08:41:11.994Z,1025.41
2019-03-27T08:42:11.986Z,1025.36
2019-03-27T08:43:21.177Z,1025.36
2019-03-27T08:44:12.965Z,1025.35
2019-03-27T08:45:11.992Z,1025.38
2019-03-27T08:46:11.943Z,1025.42
2019-03-27T08:47:11.931Z,1025.32
2019-03-27T08:48:11.919Z,1025.39
2019-03-27T08:49:21.673Z,1025.39
2019-03-27T08:50:12.899Z,1025.37
2019-03-27T08:51:11.891Z,1025.38
2019-03-27T08:52:11.878Z,1025.37
2019-03-27T08:53:11.864Z,1025.37
2019-03-27T08:54:11.856Z,1025.34
2019-03-27T08:55:13.799Z,1025.32
2019-03-27T08:56:11.834Z,1025.36
2019-03-27T08:57:11.825Z,1025.38
2019-03-27T08:58:11.811Z,1025.38
2019-03-27T08:59:11.799Z,1025.45
2019-03-27T09:00:11.793Z,1025.42
2019-03-27T09:01:11.782Z,1025.40
2019-03-27T09:02:11.838Z,1025.32
2019-03-27T09:03:11.763Z,1025.35
2019-03-27T09:04:11.749Z,1025.37
2019-03-27T09:05:11.735Z,1025.34
2019-03-27T09:06:11.728Z,1025.50
2019-03-27T09:07:11.721Z,1025.40
2019-03-27T09:08:11.708Z,1025.35
2019-03-27T09:09:11.692Z,1025.41
2019-03-27T09:10:11.685Z,1025.41
2019-03-27T09:11:11.672Z,1025.42
2019-03-27T09:12:11.662Z,1025.39
2019-03-27T09:13:11.654Z,1025.49
2019-03-27T09:14:11.640Z,1025.53
2019-03-27T09:15:11.628Z,1025.47
2019-03-27T09:16:11.619Z,1025.52
2019-03-27T09:17:11.608Z,1025.52
2019-03-27T09:18:11.596Z,1025.51
2019-03-27T09:19:11.586Z,1025.52
2019-03-27T09:20:11.575Z,1025.50
2019-03-27T09:21:11.563Z,1025.51
2019-03-27T09:22:11.554Z,1025.58
2019-03-27T09:23:11.541Z,1025.53
2019-03-27T09:24:11.537Z,1025.55
2019-03-27T09:25:11.522Z,1025.57
2019-03-27T09:26:11.513Z,1025.57
2019-03-27T09:27:11.502Z,1025.62
2019-03-27T09:28:11.489Z,1025.60
2019-03-27T09:29:11.480Z,1025.57
2019-03-27T09:30:11.466Z,1025.55
2019-03-27T09:31:11.457Z,1025.58
2019-03-27T09:32:11.448Z,1025.57
2019-03-27T09:33:11.436Z,1025.56
2019-03-27T09:34:11.423Z,1025.63
2019-03-27T09:35:11.416Z,1025.61
2019-03-27T09:36:11.529Z,1025.62
2019-03-27T09:37:11.392Z,1025.57
2019-03-27T09:38:11.385Z,1025.59
2019-03-27T09:39:11.369Z,1025.60
2019-03-27T09:40:11.359Z,1025.57
2019-03-27T09:41:11.349Z,1025.58
2019-03-27T09:42:11.336Z,1025.61
2019-03-27T09:43:11.328Z,1025.54
2019-03-27T09:44:11.318Z,1025.57
2019-03-27T09:45:11.307Z,1025.81
2019-03-27T09:46:11.294Z,1025.92
2019-03-27T09:47:11.283Z,1025.58
2019-03-27T09:48:11.352Z,1025.83
2019-03-27T09:49:11.267Z,1025.78
2019-03-27T09:50:11.252Z,1025.57
2019-03-27T09:51:11.243Z,1025.55
2019-03-27T09:52:11.265Z,1025.44
2019-03-27T09:53:11.218Z,1025.50
2019-03-27T09:54:11.206Z,1025.45
2019-03-27T09:55:11.201Z,1025.47
2019-03-27T09:56:18.906Z,1025.41
2019-03-27T09:57:12.171Z,1025.40
2019-03-27T09:58:11.162Z,1025.40
2019-03-27T09:59:11.152Z,1025.44
2019-03-27T10:00:11.142Z,1025.32
2019-03-27T10:01:11.131Z,1025.34
2019-03-27T10:02:11.263Z,1025.39
2019-03-27T10:03:11.109Z,1025.38
2019-03-27T10:04:11.096Z,1025.43
2019-03-27T10:05:11.087Z,1025.41
2019-03-27T10:06:11.076Z,1025.38
2019-03-27T10:07:11.079Z,1025.48
2019-03-27T10:08:11.055Z,1025.41
2019-03-27T10:09:11.045Z,1025.40
2019-03-27T10:10:11.034Z,1025.43
2019-03-27T10:11:11.022Z,1025.46
2019-03-27T10:12:11.013Z,1025.52
2019-03-27T10:13:11.000Z,1025.52
2019-03-27T10:14:10.994Z,1025.51
2019-03-27T10:15:10.979Z,1025.48
2019-03-27T10:16:10.968Z,1025.54
2019-03-27T10:17:10.955Z,1025.61
2019-03-27T10:18:10.950Z,1025.57
2019-03-27T10:19:10.951Z,1025.56
2019-03-27T10:20:13.572Z,1025.54
2019-03-27T10:21:10.916Z,1025.55
2019-03-27T10:22:10.901Z,1025.56
2019-03-27T10:23:10.892Z,1025.59
2019-03-27T10:24:10.881Z,1025.52
2019-03-27T10:25:10.868Z,1025.56
2019-03-27T10:26:10.858Z,1025.63
2019-03-27T10:27:10.849Z,1025.62
2019-03-27T10:28:10.837Z,1025.57
2019-03-27T10:29:10.825Z,1025.62
2019-03-27T10:30:10.818Z,1025.58
2019-03-27T10:31:10.803Z,1025.68
2019-03-27T10:32:10.792Z,1025.67
2019-03-27T10:33:10.783Z,1025.59
2019-03-27T10:34:10.769Z,1025.66
2019-03-27T10:35:10.759Z,1025.65
2019-03-27T10:36:10.755Z,1025.61
2019-03-27T10:37:10.737Z,1025.63
2019-03-27T10:38:10.726Z,1025.58
2019-03-27T10:39:10.717Z,1025.56
2019-03-27T10:40:10.707Z,1025.63
2019-03-27T10:41:10.763Z,1025.61
2019-03-27T10:42:10.683Z,1025.61
2019-03-27T10:43:10.672Z,1025.60
2019-03-27T10:44:10.660Z,1025.63
2019-03-27T10:45:10.650Z,1025.64
2019-03-27T10:46:10.639Z,1025.58
2019-03-27T10:47:10.629Z,1025.65
2019-03-27T10:48:10.617Z,1025.66
2019-03-27T10:49:10.605Z,1025.67
2019-03-27T10:50:17.615Z,1025.73
2019-03-27T10:51:11.584Z,1025.71
2019-03-27T10:52:10.573Z,1025.69
2019-03-27T10:53:10.562Z,1025.70
2019-03-27T10:54:10.550Z,1025.73
2019-03-27T10:55:10.539Z,1025.65
2019-03-27T10:56:10.528Z,1025.70
2019-03-27T10:57:10.521Z,1025.68
2019-03-27T10:58:10.507Z,1025.72
2019-03-27T10:59:10.502Z,1025.67
2019-03-27T11:00:10.486Z,1025.76
2019-03-27T11:01:10.475Z,1025.74
2019-03-27T11:02:10.464Z,1025.76
2019-03-27T11:03:10.455Z,1025.74
2019-03-27T11:04:10.441Z,1025.74
2019-03-27T11:05:10.430Z,1025.66
2019-03-27T11:06:10.420Z,1025.70
2019-03-27T11:07:10.408Z,1025.71
2019-03-27T11:08:11.637Z,1025.67
2019-03-27T11:09:10.388Z,1025.68
2019-03-27T11:10:10.375Z,1025.65
2019-03-27T11:11:10.364Z,1025.68
2019-03-27T11:12:10.353Z,1025.67
2019-03-27T11:13:10.343Z,1025.67
2019-03-27T11:14:10.335Z,1025.66
2019-03-27T11:15:10.319Z,1025.65
2019-03-27T11:16:10.310Z,1025.65
2019-03-27T11:17:10.297Z,1025.63
2019-03-27T11:18:10.288Z,1025.65
2019-03-27T11:19:10.279Z,1025.66
2019-03-27T11:20:10.267Z,1025.69
2019-03-27T11:21:10.254Z,1025.69
2019-03-27T11:22:10.244Z,1025.64
2019-03-27T11:23:10.234Z,1025.64
2019-03-27T11:24:10.227Z,1025.66
2019-03-27T11:25:10.211Z,1025.56
2019-03-27T11:26:10.200Z,1025.61
2019-03-27T11:27:10.189Z,1025.70
2019-03-27T11:28:10.184Z,1025.68
2019-03-27T11:29:10.165Z,1025.69
2019-03-27T11:30:10.158Z,1025.68
2019-03-27T11:31:10.144Z,1025.64
2019-03-27T11:32:10.138Z,1025.70
2019-03-27T11:33:10.122Z,1025.70
2019-03-27T11:34:10.119Z,1025.68
2019-03-27T11:35:10.102Z,1025.69
2019-03-27T11:36:10.089Z,1025.67
2019-03-27T11:37:10.080Z,1025.65
2019-03-27T11:38:10.074Z,1025.64
2019-03-27T11:39:10.055Z,1025.62
2019-03-27T11:40:10.053Z,1025.67
2019-03-27T11:41:12.214Z,1025.68
2019-03-27T11:42:10.025Z,1025.66
2019-03-27T11:43:10.013Z,1025.67
2019-03-27T11:44:12.585Z,1025.68
2019-03-27T11:45:09.992Z,1025.74
2019-03-27T11:46:09.984Z,1025.68
2019-03-27T11:47:09.971Z,1025.67
2019-03-27T11:48:09.959Z,1025.66
2019-03-27T11:49:09.948Z,1025.68
2019-03-27T11:50:09.936Z,1025.65
2019-03-27T11:51:09.976Z,1025.66
2019-03-27T11:52:09.913Z,1025.65
2019-03-27T11:53:09.903Z,1025.65
2019-03-27T11:54:09.890Z,1025.65
2019-03-27T11:55:09.881Z,1025.67
2019-03-27T11:56:09.871Z,1025.67
2019-03-27T11:57:09.859Z,1025.70
2019-03-27T11:58:09.846Z,1025.61
2019-03-27T11:59:09.835Z,1025.61
2019-03-27T12:00:09.832Z,1025.59
2019-03-27T12:01:09.816Z,1025.63
2019-03-27T12:02:09.806Z,1025.54
2019-03-27T12:03:09.792Z,1025.59
2019-03-27T12:04:09.779Z,1025.51
2019-03-27T12:05:09.770Z,1025.52